LIBR/BDS METAR and TAF weather

Enter ICAO airport designator
Station Type Date Time Source
LIBR METAR 2021/04/12 02:50 UTC NOAA

LIBR 120250Z AUTO 15007KT 9999 BKN130/// 12/10 Q1021


Station Type Date Time Source
LIBR Decoded METAR 2021/04/12 02:50 UTC NOAA

Brindisi, Italy (LIBR) 40-39N 017-57E 10M
Apr 11, 2021 - 10:50 PM EDT / 2021.04.12 0250 UTC
Wind: from the SSE (150 degrees) at 8 MPH (7 KT):0
Visibility: greater than 7 mile(s):0
Sky conditions: mostly cloudy
Temperature: 53 F (12 C)
Dew Point: 50 F (10 C)
Relative Humidity: 87%
Pressure (altimeter): 30.15 in. Hg (1021 hPa)
ob: LIBR 120250Z AUTO 15007KT 9999 BKN130/// 12/10 Q1021
cycle: 3

Station Type Date Time Source
LIBR TAF 2021/04/11 18:21 UTC NOAA

TAF LIBR 111700Z 1118/1218 18014KT CAVOK

Example: see airport list